Newport, OR

4:40 AM PST on December 26, 2014 (GMT -0800)
Newport Municipal | Change Station
CLOSE
Current Station
Airport
Location: Newport Airport,
Elevation: 157 ft
Nearby Weather Stations

Elev 157 ft 44.58 °N, 124.06 °W | Updated 5 minutes ago

Drizzle
Drizzle
43 °F
Feels Like 40 °F
N
5
Wind Variable Wind from East

Today
High -- | Low -- °F
--% Chance of Precip.
Yesterday
High -- | Low -- °F
Precip. -- in
7:51 AM 4:41 PM
Waxing Crescent, 25% visible
Pressure 30.34 in
Visibility 10.0 miles
Clouds Scattered Clouds 1000 ft
Scattered Clouds 1500 ft
Mostly Cloudy 4400 ft
Windchill 40 °F
Dew Point 43 °F
Humidity 100%
Rainfall 0.42 in
Snow Depth Not available.
UV 0 out of 12
Pollen 1.60 out of 12
Air Quality Not available.
Flu Activity Not available.
METAR KONP 261235Z AUTO 09004KT 10SM DZ SCT010 SCT015 BKN044 06/06 A3034 RMK AO2

More Conditions Fewer Conditions

Pressure 30.34 in
Visibility 10.0 miles
Clouds Scattered Clouds 1000 ft
Scattered Clouds 1500 ft
Mostly Cloudy 4400 ft
Windchill 40 °F
Dew Point 43 °F
Humidity 100%
Rainfall 0.42 in
Snow Depth Not available.
UV 0 out of 12
Pollen 1.60 out of 12
Air Quality Not available.
Flu Activity Not available.
METAR KONP 261235Z AUTO 09004KT 10SM DZ SCT010 SCT015 BKN044 06/06 A3034 RMK AO2

More Conditions Fewer Conditions

10-Day Weather Forecast

Almanac

Astronomy

Dec. 26, 2014 Rise Set
Actual Time
Civil Twilight
Nautical Twilight
Astronomical Twilight
Moon
Length of Visible Light
Length of Day
Tomorrow will be .
, % of the Moon is Illuminated

Today's Extremes

State Highs State Lows

Community

WunderPhotos

Upload Photos

1,780,588 photos uploaded!

WunderBlogs® & News

Nearby

Air Quality

  Air Quality AQ Index Pollutant
Not available.

Snow Depth

Station Depth Elevation

Earthquake Activity

City Distance Mag. Time & Date
Minimum magnitude displayed is 2.5.

Coastal Water Temperatures

Place Temperature

Nearby Weather Stations